Miami Lakes, Florida
Current Conditions -  °F | °C
As of 2:22 AM on Sunday 23 Nov 2014 (Local Time) from KOPF Reporting Station
Broken Clouds Broken Clouds  
Wind Chill: 77°   Ceiling: 2700
Heat Index: 78°   Visibility: 10mi
Dew Point: 72°   Wind: 12mph
Humidity: 84%   Direction: 120°ESE
Pressure: 30.03"   Gusts: NA
Location:  25.9357°N, 80.3817°W
Report Text: KOPF 230722Z AUTO 12010KT 10SM SCT017 SCT023 BKN027 25/22 A3003 RMK AO2 T02500222
Loading
Personal Weather Stations






























Interactive Weather Map New forecast layout! Learn more

10-Day Weather Forecast

Advertisements
Track Severe Weather on mobile